Time;durP1;ratioP1;P1;durP2;ratioP2;P2;SDS_P1;SDS_P2;PMS_P1;PMS_P2;Temp;Humidity;BMP_temperature;BMP_pressure;BME280_temperature;BME280_humidity;BME280_pressure;Samples;Min_cycle;Max_cycle;Signal;HPM_P1;HPM_P2
2023/12/14 00:01:36;;;;;;;12.35;9.27;;;7.10;99.90;;;;;;4968990;28;20035;-51
2023/12/14 00:04:04;;;;;;;16.50;10.65;;;7.10;99.90;;;;;;4968782;28;20039;-46
2023/12/14 00:06:29;;;;;;;14.02;9.30;;;7.10;99.90;;;;;;4969861;28;20065;-50
2023/12/14 00:08:55;;;;;;;12.73;9.80;;;7.10;99.90;;;;;;4970103;28;20027;-49
2023/12/14 00:11:20;;;;;;;13.80;9.63;;;7.10;99.90;;;;;;4970002;28;20059;-50
2023/12/14 00:13:45;;;;;;;15.02;9.95;;;7.10;99.90;;;;;;4969408;28;20768;-49
2023/12/14 00:16:11;;;;;;;11.77;9.40;;;7.10;99.90;;;;;;4969936;28;20070;-48
2023/12/14 00:18:37;;;;;;;12.55;9.07;;;7.00;99.90;;;;;;4970053;28;20512;-52
2023/12/14 00:21:03;;;;;;;10.93;8.40;;;7.00;99.90;;;;;;4969647;28;20071;-48
2023/12/14 00:23:28;;;;;;;13.82;8.50;;;6.90;99.90;;;;;;4969005;28;20108;-43
2023/12/14 00:25:54;;;;;;;12.98;8.85;;;6.90;99.90;;;;;;4969506;28;20554;-58
2023/12/14 00:28:19;;;;;;;11.20;8.32;;;6.80;99.90;;;;;;4968436;28;20080;-47
2023/12/14 00:30:45;;;;;;;10.95;8.32;;;6.70;99.90;;;;;;4966628;28;20038;-54
2023/12/14 00:33:10;;;;;;;9.98;8.27;;;6.70;99.90;;;;;;4966372;28;20084;-47
2023/12/14 00:35:36;;;;;;;11.30;8.30;;;6.60;99.90;;;;;;4966770;28;20060;-50
2023/12/14 00:38:01;;;;;;;9.80;7.68;;;6.70;99.90;;;;;;4966821;28;20478;-51
2023/12/14 00:40:27;;;;;;;11.88;8.55;;;6.60;99.90;;;;;;4966628;28;20027;-45
2023/12/14 00:42:52;;;;;;;12.85;8.88;;;6.60;99.90;;;;;;4966403;28;20462;-50
2023/12/14 00:45:18;;;;;;;11.95;8.40;;;6.60;99.90;;;;;;4949060;28;20120;-48
2023/12/14 00:47:43;;;;;;;20.77;9.10;;;6.60;99.90;;;;;;4966575;28;20405;-46
2023/12/14 00:50:09;;;;;;;12.93;7.90;;;6.60;99.90;;;;;;4966511;28;20030;-48
2023/12/14 00:52:34;;;;;;;16.77;9.30;;;6.60;99.90;;;;;;4966591;28;20098;-51
2023/12/14 00:55:00;;;;;;;13.98;9.00;;;6.50;99.90;;;;;;4966792;28;20402;-51
2023/12/14 00:57:25;;;;;;;12.00;8.73;;;6.50;99.90;;;;;;4983684;22;20430;-54
2023/12/14 00:59:51;;;;;;;13.65;8.05;;;6.50;99.90;;;;;;4986857;28;20023;-57
2023/12/14 01:02:16;;;;;;;8.77;6.85;;;6.40;99.90;;;;;;4979378;28;20494;-53
2023/12/14 01:04:42;;;;;;;10.40;7.75;;;6.40;99.90;;;;;;4970720;28;20031;-50
2023/12/14 01:07:08;;;;;;;9.52;6.88;;;6.30;99.90;;;;;;4958900;28;20059;-54
2023/12/14 01:09:33;;;;;;;12.43;7.32;;;6.30;99.90;;;;;;4952964;29;20132;-55
2023/12/14 01:11:59;;;;;;;10.18;7.57;;;6.30;99.90;;;;;;4952636;29;20031;-49
2023/12/14 01:14:24;;;;;;;8.57;6.35;;;6.30;99.90;;;;;;4952992;29;20028;-56
2023/12/14 01:16:50;;;;;;;9.30;7.80;;;6.20;99.90;;;;;;4935637;29;20066;-55
2023/12/14 01:19:15;;;;;;;13.23;8.15;;;6.20;99.90;;;;;;4935767;29;20030;-51
2023/12/14 01:21:41;;;;;;;116.47;47.35;;;6.10;99.90;;;;;;4952842;29;20077;-54
2023/12/14 01:24:06;;;;;;;24.83;14.63;;;6.00;99.90;;;;;;4952513;29;20090;-57
2023/12/14 01:26:32;;;;;;;7.43;6.53;;;6.00;99.90;;;;;;4952649;29;20028;-53
2023/12/14 01:28:59;;;;;;;7.85;5.45;;;6.00;99.90;;;;;;4952864;29;20102;-53
2023/12/14 01:31:24;;;;;;;7.82;6.15;;;5.90;99.90;;;;;;4952731;29;20020;-51
2023/12/14 01:33:51;;;;;;;5.05;4.25;;;5.90;99.90;;;;;;4935340;29;20023;-52
2023/12/14 01:36:24;;;;;;;5.15;4.65;;;5.90;99.90;;;;;;4952466;29;20031;-51
2023/12/14 01:38:50;;;;;;;5.60;5.10;;;5.90;99.90;;;;;;4935119;29;20403;-55
2023/12/14 01:41:16;;;;;;;5.82;5.25;;;5.90;99.90;;;;;;4952260;29;20115;-54
2023/12/14 01:43:42;;;;;;;6.65;5.10;;;5.80;99.90;;;;;;4952366;29;20090;-52
2023/12/14 01:46:07;;;;;;;7.25;5.20;;;5.80;99.90;;;;;;4952358;29;20487;-53
2023/12/14 01:48:33;;;;;;;7.63;5.10;;;5.80;99.90;;;;;;4952380;29;20031;-51
2023/12/14 01:50:58;;;;;;;6.70;5.00;;;5.70;99.90;;;;;;4952025;29;20062;-53
2023/12/14 01:53:24;;;;;;;5.63;4.88;;;5.70;99.90;;;;;;4934981;29;20025;-58
2023/12/14 01:55:49;;;;;;;5.15;4.65;;;5.70;99.90;;;;;;4935041;29;20101;-56
2023/12/14 01:58:15;;;;;;;5.60;4.97;;;5.70;99.90;;;;;;4951774;29;20047;-48
2023/12/14 02:01:13;;;;;;;7.13;4.47;;;5.70;99.90;;;;;;4952235;29;20035;-54
2023/12/14 02:03:46;;;;;;;5.22;4.30;;;5.70;99.90;;;;;;4952119;29;20031;-52
2023/12/14 02:06:11;;;;;;;5.05;4.40;;;5.70;99.90;;;;;;4952353;29;20035;-57
2023/12/14 02:08:37;;;;;;;4.93;4.38;;;5.60;99.90;;;;;;4952206;29;20142;-55
2023/12/14 02:11:03;;;;;;;5.63;5.13;;;5.60;99.90;;;;;;4934781;29;20462;-57
2023/12/14 02:13:28;;;;;;;6.93;5.68;;;5.60;99.90;;;;;;4953116;29;20522;-52
2023/12/14 02:15:54;;;;;;;6.47;5.78;;;5.60;99.90;;;;;;4964879;28;20034;-57
2023/12/14 02:18:19;;;;;;;7.40;6.07;;;5.60;99.90;;;;;;4953247;29;20031;-57
2023/12/14 02:20:45;;;;;;;6.63;5.68;;;5.70;99.90;;;;;;4934975;29;20056;-56
2023/12/14 02:23:10;;;;;;;6.90;5.93;;;5.70;99.90;;;;;;4951738;29;20054;-53
2023/12/14 02:25:36;;;;;;;16.50;7.32;;;5.70;99.90;;;;;;4951906;29;20114;-53
2023/12/14 02:28:01;;;;;;;10.60;7.35;;;5.70;99.90;;;;;;4951977;29;20092;-57
2023/12/14 02:30:27;;;;;;;8.57;6.88;;;5.70;99.90;;;;;;4951839;29;20023;-56
2023/12/14 02:32:52;;;;;;;10.10;6.63;;;5.70;99.90;;;;;;4951765;29;20032;-57
2023/12/14 02:35:18;;;;;;;10.75;7.75;;;5.80;99.90;;;;;;4951976;29;20034;-55
2023/12/14 02:37:43;;;;;;;8.80;6.55;;;5.70;99.90;;;;;;4951605;29;20124;-56
2023/12/14 02:40:10;;;;;;;7.00;5.85;;;5.80;99.90;;;;;;4950767;28;20035;-57
2023/12/14 02:42:36;;;;;;;10.15;6.95;;;5.80;99.90;;;;;;4951476;29;20426;-56
2023/12/14 02:45:03;;;;;;;9.07;5.38;;;5.80;99.90;;;;;;4934326;29;20027;-56
2023/12/14 02:47:29;;;;;;;7.90;6.30;;;5.80;99.90;;;;;;4951515;29;20034;-53
2023/12/14 02:49:55;;;;;;;8.25;5.75;;;5.90;99.90;;;;;;4951376;29;20058;-54
2023/12/14 02:52:21;;;;;;;8.35;6.13;;;5.90;99.90;;;;;;4951222;29;20027;-55
2023/12/14 02:54:46;;;;;;;9.73;6.43;;;5.90;99.90;;;;;;4951452;29;20030;-53
2023/12/14 02:57:12;;;;;;;10.40;6.28;;;6.00;99.90;;;;;;4951258;29;20122;-55
2023/12/14 02:59:37;;;;;;;7.78;6.38;;;6.00;99.90;;;;;;4951391;29;20070;-54
2023/12/14 03:02:03;;;;;;;14.23;6.63;;;6.20;99.90;;;;;;4951199;29;20031;-55
2023/12/14 03:04:28;;;;;;;9.50;6.47;;;6.10;99.90;;;;;;4951091;29;20483;-56
2023/12/14 03:06:54;;;;;;;7.15;5.85;;;6.00;99.90;;;;;;4951234;29;20473;-54
2023/12/14 03:09:19;;;;;;;7.32;6.25;;;5.90;99.90;;;;;;4951365;29;20027;-55
2023/12/14 03:11:45;;;;;;;8.40;5.90;;;6.00;99.90;;;;;;4951143;29;20506;-55
2023/12/14 03:14:11;;;;;;;7.70;5.45;;;6.10;99.90;;;;;;4951035;29;20145;-58
2023/12/14 03:16:37;;;;;;;8.52;5.45;;;6.10;99.90;;;;;;4933991;29;20026;-56
2023/12/14 03:19:03;;;;;;;5.95;5.32;;;6.10;99.90;;;;;;4951276;29;20023;-55
2023/12/14 03:21:28;;;;;;;6.68;5.22;;;6.10;99.90;;;;;;4951133;29;20025;-52
2023/12/14 03:23:54;;;;;;;9.32;5.43;;;6.10;99.90;;;;;;4950949;29;20020;-53
2023/12/14 03:26:19;;;;;;;6.45;5.22;;;6.10;99.90;;;;;;4933738;28;20039;-53
2023/12/14 03:28:45;;;;;;;7.65;5.80;;;6.10;99.90;;;;;;4950849;29;20495;-52
2023/12/14 03:31:12;;;;;;;7.50;5.65;;;6.10;99.90;;;;;;4950856;29;20028;-55
2023/12/14 03:33:38;;;;;;;9.10;5.28;;;6.10;99.90;;;;;;4950706;29;20487;-54
2023/12/14 03:36:04;;;;;;;7.53;5.25;;;6.10;99.90;;;;;;4951030;29;20034;-52
2023/12/14 03:38:29;;;;;;;6.10;5.50;;;6.10;99.90;;;;;;4950753;29;20031;-52
2023/12/14 03:40:55;;;;;;;6.65;5.55;;;6.20;99.90;;;;;;4950266;29;20039;-61
2023/12/14 03:43:20;;;;;;;7.38;5.47;;;6.20;99.90;;;;;;4933523;29;20089;-54
2023/12/14 03:45:46;;;;;;;8.07;5.85;;;6.20;99.90;;;;;;4950429;29;20031;-55
2023/12/14 03:48:11;;;;;;;9.55;5.28;;;6.30;99.90;;;;;;4951166;29;20102;-52
2023/12/14 03:50:37;;;;;;;5.90;5.28;;;6.30;99.90;;;;;;4933322;29;20019;-58
2023/12/14 03:53:02;;;;;;;6.25;5.63;;;6.30;99.90;;;;;;4950576;29;20027;-55
2023/12/14 03:55:28;;;;;;;11.75;5.78;;;6.30;99.90;;;;;;4950790;29;20054;-52
2023/12/14 03:57:53;;;;;;;6.82;5.30;;;6.30;99.90;;;;;;4950437;29;20118;-53
2023/12/14 04:00:19;;;;;;;6.93;5.85;;;6.30;99.90;;;;;;4950570;29;20031;-59
2023/12/14 04:02:45;;;;;;;6.72;6.00;;;6.40;99.90;;;;;;4950163;29;20031;-53
2023/12/14 04:05:10;;;;;;;9.10;6.18;;;6.30;99.90;;;;;;4950520;29;20102;-51
2023/12/14 04:07:39;;;;;;;6.32;5.70;;;6.30;99.90;;;;;;4933089;29;20024;-52
2023/12/14 04:10:05;;;;;;;6.10;5.50;;;6.30;99.90;;;;;;4950635;29;20034;-52
2023/12/14 04:12:30;;;;;;;6.97;5.93;;;6.40;99.90;;;;;;4950080;29;20027;-55
2023/12/14 04:14:56;;;;;;;6.15;5.40;;;6.30;99.90;;;;;;4950359;29;20103;-51
2023/12/14 04:17:21;;;;;;;7.20;5.93;;;6.30;99.90;;;;;;4933005;29;20058;-56
2023/12/14 04:19:47;;;;;;;11.57;5.40;;;6.30;99.90;;;;;;4950455;29;20055;-50
2023/12/14 04:22:12;;;;;;;8.00;6.22;;;6.40;99.90;;;;;;4950121;29;20555;-56
2023/12/14 04:24:38;;;;;;;7.88;5.68;;;6.40;99.90;;;;;;4950459;29;20034;-56
2023/12/14 04:27:04;;;;;;;10.70;6.35;;;6.40;99.90;;;;;;4950345;29;20023;-58
2023/12/14 04:29:29;;;;;;;8.68;6.35;;;6.40;99.90;;;;;;4950414;29;20027;-54
2023/12/14 04:31:55;;;;;;;9.60;6.72;;;6.40;99.90;;;;;;4933057;29;20035;-54
2023/12/14 04:34:20;;;;;;;10.82;7.07;;;6.50;99.90;;;;;;4950266;29;20042;-55
2023/12/14 04:36:46;;;;;;;10.95;7.05;;;6.50;99.90;;;;;;4950178;29;20114;-58
2023/12/14 04:39:11;;;;;;;8.23;6.18;;;6.50;99.90;;;;;;4934098;29;20458;-54
2023/12/14 04:41:37;;;;;;;10.20;6.70;;;6.50;99.90;;;;;;4935920;28;20082;-55
2023/12/14 04:44:03;;;;;;;9.48;7.18;;;6.50;99.90;;;;;;4953232;29;20106;-52
2023/12/14 04:46:28;;;;;;;9.98;6.55;;;6.50;99.90;;;;;;4936141;29;20545;-57
2023/12/14 04:48:54;;;;;;;8.45;6.82;;;6.50;99.90;;;;;;4953355;29;20360;-54
2023/12/14 04:51:20;;;;;;;6.55;5.20;;;6.50;99.90;;;;;;4953268;29;20089;-57
2023/12/14 04:53:46;;;;;;;8.18;6.72;;;6.50;99.90;;;;;;4953334;29;20028;-52
2023/12/14 04:56:12;;;;;;;6.80;5.50;;;6.50;99.90;;;;;;4953375;29;20491;-53
2023/12/14 04:58:41;;;;;;;9.27;6.07;;;6.50;99.90;;;;;;4953323;29;20039;-55
2023/12/14 05:01:07;;;;;;;8.98;5.80;;;6.40;99.90;;;;;;4953156;29;20554;-57
2023/12/14 05:03:34;;;;;;;7.90;6.32;;;6.40;99.90;;;;;;4953126;29;20066;-55
2023/12/14 05:06:00;;;;;;;7.43;5.68;;;6.40;99.90;;;;;;4953105;29;20027;-53
2023/12/14 05:08:26;;;;;;;6.03;5.32;;;6.40;99.90;;;;;;4953251;29;20050;-56
2023/12/14 05:10:51;;;;;;;18.35;8.70;;;6.40;99.90;;;;;;4935806;29;20031;-55
2023/12/14 05:13:17;;;;;;;8.65;7.22;;;6.50;99.90;;;;;;4953022;29;20031;-54
2023/12/14 05:15:42;;;;;;;13.30;7.65;;;6.70;99.90;;;;;;4935831;29;20502;-55
2023/12/14 05:18:08;;;;;;;8.63;7.05;;;6.60;99.90;;;;;;4952849;29;20585;-55
2023/12/14 05:20:35;;;;;;;7.13;6.43;;;6.50;99.90;;;;;;4952709;29;20110;-57
2023/12/14 05:23:01;;;;;;;9.23;6.57;;;6.50;99.90;;;;;;4952729;29;20027;-56
2023/12/14 05:25:26;;;;;;;12.90;6.97;;;6.40;99.90;;;;;;4953188;29;20437;-52
2023/12/14 05:27:52;;;;;;;13.23;9.13;;;6.40;99.90;;;;;;4953163;29;20363;-55
2023/12/14 05:30:17;;;;;;;15.20;10.10;;;6.50;99.90;;;;;;4952973;29;20070;-56
2023/12/14 05:32:43;;;;;;;18.05;11.43;;;6.60;99.90;;;;;;4935422;29;20073;-54
2023/12/14 05:35:09;;;;;;;19.02;11.27;;;6.60;99.90;;;;;;4952931;29;20538;-57
2023/12/14 05:37:35;;;;;;;13.77;10.63;;;6.60;99.90;;;;;;4952932;29;20027;-55
2023/12/14 05:40:01;;;;;;;17.27;12.40;;;6.60;99.90;;;;;;4952538;29;20031;-57
2023/12/14 05:42:27;;;;;;;9.55;7.90;;;6.60;99.90;;;;;;4935288;29;20062;-57
2023/12/14 05:44:52;;;;;;;14.90;7.15;;;6.50;99.90;;;;;;4952690;29;20067;-59
2023/12/14 05:47:18;;;;;;;8.40;7.45;;;6.50;99.90;;;;;;4952845;29;20061;-55
2023/12/14 05:49:44;;;;;;;8.02;7.20;;;6.40;99.90;;;;;;4952561;28;20028;-56
2023/12/14 05:52:10;;;;;;;14.77;9.60;;;6.50;99.90;;;;;;4952350;29;20031;-57
2023/12/14 05:54:37;;;;;;;18.25;10.57;;;6.50;99.90;;;;;;4952699;29;20067;-57
2023/12/14 05:57:03;;;;;;;15.07;10.85;;;6.60;99.90;;;;;;4935470;29;20027;-51
2023/12/14 05:59:28;;;;;;;19.63;11.32;;;6.60;99.90;;;;;;4935493;29;20496;-55
2023/12/14 06:01:57;;;;;;;20.83;11.13;;;6.70;99.90;;;;;;4952524;29;20106;-54
2023/12/14 06:04:24;;;;;;;12.68;9.60;;;6.90;99.90;;;;;;4935059;29;20031;-56
2023/12/14 06:06:49;;;;;;;17.00;10.05;;;6.90;99.90;;;;;;4952261;29;20038;-54
2023/12/14 06:09:15;;;;;;;13.20;9.40;;;6.90;99.90;;;;;;4952405;29;20015;-57
2023/12/14 06:11:40;;;;;;;11.82;8.73;;;6.70;99.90;;;;;;4952325;29;20326;-53
2023/12/14 06:14:06;;;;;;;13.35;9.50;;;6.60;99.90;;;;;;4952296;29;20055;-53
2023/12/14 06:16:31;;;;;;;11.25;8.52;;;6.60;99.90;;;;;;4952430;29;20098;-56
2023/12/14 06:18:57;;;;;;;11.80;8.25;;;6.60;99.90;;;;;;4952480;29;20077;-52
2023/12/14 06:21:26;;;;;;;10.90;7.65;;;6.50;99.90;;;;;;4952498;29;20031;-54
2023/12/14 06:23:51;;;;;;;9.95;8.15;;;6.50;99.90;;;;;;4953536;29;20047;-56
2023/12/14 06:26:17;;;;;;;10.70;7.80;;;6.50;99.90;;;;;;4953925;29;20066;-53
2023/12/14 06:28:42;;;;;;;13.30;9.48;;;6.60;99.90;;;;;;4953775;29;20024;-53
2023/12/14 06:31:13;;;;;;;12.50;9.55;;;6.60;99.90;;;;;;4955983;29;20023;-54
2023/12/14 06:33:39;;;;;;;12.48;8.82;;;6.70;99.90;;;;;;4955450;29;20489;-56
2023/12/14 06:36:05;;;;;;;11.77;8.90;;;6.70;99.90;;;;;;4953865;29;20035;-57
2023/12/14 06:38:31;;;;;;;10.75;8.63;;;6.80;99.90;;;;;;4951972;29;20039;-57
2023/12/14 06:40:56;;;;;;;19.40;9.55;;;6.90;99.90;;;;;;4951562;29;20027;-53
2023/12/14 06:43:22;;;;;;;12.55;8.70;;;6.90;99.90;;;;;;4951496;29;20027;-56
2023/12/14 06:45:47;;;;;;;11.27;8.15;;;6.90;99.90;;;;;;4951826;29;20031;-54
2023/12/14 06:48:13;;;;;;;14.43;7.70;;;6.90;99.90;;;;;;4951581;29;20475;-54
2023/12/14 06:50:38;;;;;;;10.48;7.53;;;7.00;99.90;;;;;;4951661;29;20117;-56
2023/12/14 06:53:04;;;;;;;12.80;8.68;;;6.90;99.90;;;;;;4951433;29;20042;-53
2023/12/14 06:55:30;;;;;;;11.00;8.25;;;7.00;99.90;;;;;;4934336;29;20035;-57
2023/12/14 06:57:55;;;;;;;9.30;8.32;;;7.00;99.90;;;;;;4950782;23;20046;-55
2023/12/14 07:00:21;;;;;;;10.77;9.65;;;6.90;99.90;;;;;;4973855;28;20072;-52
2023/12/14 07:02:46;;;;;;;9.30;8.05;;;7.00;99.90;;;;;;4955558;28;20460;-51
2023/12/14 07:05:12;;;;;;;8.95;7.93;;;6.90;99.90;;;;;;4971828;28;20039;-51
2023/12/14 07:07:37;;;;;;;16.35;9.00;;;6.90;99.90;;;;;;4971109;28;20058;-56
2023/12/14 07:10:04;;;;;;;10.13;8.75;;;7.10;99.90;;;;;;4970888;28;20098;-49
2023/12/14 07:12:29;;;;;;;11.48;7.80;;;7.10;99.90;;;;;;4970509;28;20070;-54
2023/12/14 07:14:55;;;;;;;13.50;8.00;;;7.20;99.90;;;;;;4970749;28;20062;-51
2023/12/14 07:17:20;;;;;;;10.20;8.27;;;7.30;99.90;;;;;;4970730;28;20038;-50
2023/12/14 07:19:46;;;;;;;17.65;8.07;;;7.40;99.90;;;;;;4970802;28;20031;-53
2023/12/14 07:22:11;;;;;;;9.45;7.13;;;7.40;99.90;;;;;;4970604;28;20047;-50
2023/12/14 07:24:37;;;;;;;10.75;8.20;;;7.40;99.90;;;;;;4970281;28;20502;-46
2023/12/14 07:27:02;;;;;;;13.25;8.63;;;7.30;99.90;;;;;;4970353;28;20118;-55
2023/12/14 07:29:29;;;;;;;13.50;8.35;;;7.30;99.90;;;;;;4970284;28;20023;-52
2023/12/14 07:31:54;;;;;;;13.55;8.18;;;7.20;99.90;;;;;;4970123;28;20027;-55
2023/12/14 07:34:20;;;;;;;9.45;7.70;;;7.30;99.90;;;;;;4952732;28;20030;-49
2023/12/14 07:36:46;;;;;;;11.90;8.02;;;7.30;99.90;;;;;;4970512;28;20145;-49
2023/12/14 07:39:12;;;;;;;11.65;7.82;;;7.20;99.90;;;;;;4970118;28;20504;-55
2023/12/14 07:41:37;;;;;;;16.90;8.07;;;7.20;99.90;;;;;;4969838;28;20037;-47
2023/12/14 07:44:04;;;;;;;13.85;8.30;;;7.20;99.90;;;;;;4969985;28;20401;-54
2023/12/14 07:46:30;;;;;;;17.92;8.15;;;7.30;99.90;;;;;;4970015;28;20121;-54
2023/12/14 07:48:55;;;;;;;11.55;7.90;;;7.30;99.90;;;;;;4970140;28;20513;-51
2023/12/14 07:51:21;;;;;;;13.68;7.75;;;7.30;99.90;;;;;;4969946;28;20486;-54
2023/12/14 07:53:46;;;;;;;15.45;7.95;;;7.30;99.90;;;;;;4969959;28;20023;-52
2023/12/14 07:56:12;;;;;;;17.15;7.25;;;7.30;99.90;;;;;;4970067;28;20034;-52
2023/12/14 07:58:38;;;;;;;12.65;8.05;;;7.30;99.90;;;;;;4969839;28;20043;-53
2023/12/14 08:01:03;;;;;;;14.27;7.88;;;7.30;99.90;;;;;;4969791;28;20547;-56
2023/12/14 08:03:29;;;;;;;11.48;8.95;;;7.40;99.90;;;;;;4952425;28;20041;-54
2023/12/14 08:05:54;;;;;;;13.55;8.38;;;7.50;99.90;;;;;;4952734;28;20042;-50
2023/12/14 08:08:20;;;;;;;19.67;9.13;;;7.40;99.90;;;;;;4969836;28;20023;-54
2023/12/14 08:10:45;;;;;;;13.63;8.20;;;7.50;99.90;;;;;;4969840;28;20029;-50
2023/12/14 08:13:11;;;;;;;11.10;8.05;;;7.60;99.90;;;;;;4968662;28;20056;-47
2023/12/14 08:15:36;;;;;;;11.57;8.63;;;7.60;99.90;;;;;;4969345;28;20034;-52
2023/12/14 08:18:02;;;;;;;14.27;8.80;;;7.60;99.90;;;;;;4952373;28;20543;-54
2023/12/14 08:20:27;;;;;;;15.38;9.25;;;7.70;99.90;;;;;;4952369;28;20120;-50
2023/12/14 08:22:53;;;;;;;14.48;9.68;;;7.70;99.90;;;;;;4969503;28;20102;-48
2023/12/14 08:25:18;;;;;;;14.55;9.40;;;7.60;99.90;;;;;;4952298;28;20067;-51
2023/12/14 08:27:44;;;;;;;21.83;10.30;;;7.60;99.90;;;;;;4969691;28;20445;-48
2023/12/14 08:30:11;;;;;;;12.77;8.70;;;7.70;99.90;;;;;;4969591;28;20555;-48
2023/12/14 08:32:36;;;;;;;15.57;9.50;;;7.70;99.90;;;;;;4969293;28;20157;-54
2023/12/14 08:35:02;;;;;;;16.63;9.68;;;7.70;99.90;;;;;;4952226;28;20114;-50
2023/12/14 08:37:28;;;;;;;13.35;9.50;;;7.70;99.90;;;;;;4969455;28;20026;-49
2023/12/14 08:39:54;;;;;;;14.45;9.80;;;7.70;99.90;;;;;;4969157;28;20031;-49
2023/12/14 08:42:19;;;;;;;14.80;10.27;;;7.60;99.90;;;;;;4969454;28;20102;-50
2023/12/14 08:44:45;;;;;;;19.85;10.73;;;7.70;99.90;;;;;;4952055;28;20027;-49
2023/12/14 08:47:10;;;;;;;13.70;9.57;;;7.70;99.90;;;;;;4969366;28;20058;-47
2023/12/14 08:49:35;;;;;;;15.07;10.55;;;7.80;99.90;;;;;;4969522;28;20045;-49
2023/12/14 08:52:01;;;;;;;15.00;10.70;;;8.10;99.90;;;;;;4970048;28;20180;-52
2023/12/14 08:54:27;;;;;;;9.32;7.85;;;8.70;99.90;;;;;;4970475;28;20031;-49
2023/12/14 08:56:52;;;;;;;12.80;9.02;;;9.40;99.90;;;;;;4971007;28;20031;-49
2023/12/14 08:59:20;;;;;;;12.70;8.85;;;9.60;99.90;;;;;;4971155;28;20553;-49
2023/12/14 09:01:45;;;;;;;14.77;8.88;;;9.60;99.90;;;;;;4953011;28;20065;-48
2023/12/14 09:04:11;;;;;;;14.23;10.05;;;9.40;99.90;;;;;;4951650;28;20026;-49
2023/12/14 09:06:36;;;;;;;16.80;9.55;;;9.20;99.90;;;;;;4969273;28;20027;-49
2023/12/14 09:09:03;;;;;;;15.25;10.18;;;9.10;99.90;;;;;;4969008;28;20114;-51
2023/12/14 09:11:29;;;;;;;17.25;10.93;;;8.90;99.90;;;;;;4968882;28;20050;-48
2023/12/14 09:13:55;;;;;;;16.13;10.80;;;8.80;99.90;;;;;;4951390;28;20023;-48
2023/12/14 09:16:21;;;;;;;17.02;10.90;;;8.70;99.90;;;;;;4968970;28;20034;-53
2023/12/14 09:18:46;;;;;;;18.10;12.18;;;8.60;99.90;;;;;;4969035;28;20139;-50
2023/12/14 09:21:12;;;;;;;20.70;12.85;;;8.60;99.90;;;;;;4968912;28;20030;-53
2023/12/14 09:23:37;;;;;;;22.40;13.30;;;8.60;99.90;;;;;;4968731;28;20065;-50
2023/12/14 09:26:03;;;;;;;21.27;11.90;;;8.60;99.90;;;;;;4951372;28;20040;-51
2023/12/14 09:28:29;;;;;;;19.92;12.50;;;8.70;99.90;;;;;;4961314;28;20018;-52
2023/12/14 09:30:54;;;;;;;20.95;12.32;;;8.70;99.90;;;;;;4972108;28;20027;-50
2023/12/14 09:33:20;;;;;;;20.13;11.10;;;8.80;99.90;;;;;;4971949;28;20050;-48
2023/12/14 09:35:46;;;;;;;18.60;10.93;;;8.80;99.90;;;;;;4972188;28;20027;-50
2023/12/14 09:38:13;;;;;;;16.25;11.32;;;8.80;99.90;;;;;;4969166;28;20370;-54
2023/12/14 09:40:39;;;;;;;21.50;12.27;;;8.70;99.90;;;;;;4963317;28;20019;-51
2023/12/14 09:43:05;;;;;;;20.00;11.90;;;8.80;99.90;;;;;;4956344;28;20075;-48
2023/12/14 09:45:31;;;;;;;23.90;11.63;;;8.90;99.90;;;;;;4959175;28;20486;-48
2023/12/14 09:47:57;;;;;;;16.92;11.30;;;9.00;99.90;;;;;;4954528;28;20026;-52
2023/12/14 09:50:24;;;;;;;18.15;11.88;;;9.00;99.90;;;;;;4962319;28;20020;-53
2023/12/14 09:52:49;;;;;;;22.25;12.30;;;9.00;99.90;;;;;;4965874;28;20058;-52
2023/12/14 09:55:15;;;;;;;17.73;12.65;;;9.10;99.90;;;;;;4970622;28;20058;-52
2023/12/14 09:57:41;;;;;;;22.13;11.05;;;9.20;99.90;;;;;;4954459;28;20039;-51
2023/12/14 10:00:10;;;;;;;20.70;10.68;;;9.20;99.90;;;;;;4971826;28;20091;-50
2023/12/14 10:02:36;;;;;;;17.05;11.20;;;9.30;99.90;;;;;;4971394;28;20031;-53
2023/12/14 10:05:03;;;;;;;13.15;9.43;;;9.40;99.90;;;;;;4954348;28;20037;-50
2023/12/14 10:07:30;;;;;;;14.15;10.85;;;9.40;99.90;;;;;;4954250;28;20027;-52
2023/12/14 10:10:13;;;;;;;18.88;10.27;;;9.40;99.90;;;;;;4971704;28;20046;-52
2023/12/14 10:12:54;;;;;;;14.02;9.88;;;9.40;99.90;;;;;;4954132;28;20050;-48
2023/12/14 10:15:20;;;;;;;16.27;9.20;;;9.50;99.90;;;;;;4971395;28;20095;-48
2023/12/14 10:17:53;;;;;;;11.55;7.32;;;9.40;99.90;;;;;;4971031;28;20529;-49
2023/12/14 10:20:21;;;;;;;10.18;6.63;;;9.50;99.90;;;;;;4971062;28;20183;-51
2023/12/14 10:22:48;;;;;;;7.60;5.55;;;9.40;99.90;;;;;;4970775;28;20035;-49
2023/12/14 10:25:14;;;;;;;8.63;6.20;;;9.40;99.90;;;;;;4970902;28;20019;-45
2023/12/14 10:27:40;;;;;;;8.30;5.80;;;9.50;99.90;;;;;;4970850;28;20469;-48
2023/12/14 10:30:12;;;;;;;8.70;6.15;;;9.50;99.90;;;;;;4971137;28;20026;-52
2023/12/14 10:32:37;;;;;;;8.18;5.88;;;9.40;99.90;;;;;;4971063;28;20029;-45
2023/12/14 10:35:03;;;;;;;10.55;6.55;;;9.30;99.90;;;;;;4969499;28;20457;-52
2023/12/14 10:37:32;;;;;;;8.48;5.75;;;9.30;99.90;;;;;;4968334;28;20039;-47
2023/12/14 10:39:58;;;;;;;7.68;6.10;;;9.30;99.90;;;;;;4971222;28;20022;-53
2023/12/14 10:42:26;;;;;;;7.63;5.15;;;9.30;99.90;;;;;;4951937;28;20027;-50
2023/12/14 10:44:53;;;;;;;7.43;5.53;;;9.40;99.90;;;;;;4967861;28;20106;-47
2023/12/14 10:47:19;;;;;;;6.53;4.97;;;9.40;99.90;;;;;;4970349;28;20042;-48
2023/12/14 10:49:50;;;;;;;7.03;5.65;;;9.40;99.90;;;;;;4970289;28;20035;-47
2023/12/14 10:52:17;;;;;;;8.27;4.95;;;9.40;99.90;;;;;;4969222;28;20482;-52
2023/12/14 10:54:45;;;;;;;6.72;4.95;;;9.40;99.90;;;;;;4940954;28;20066;-50
2023/12/14 10:57:11;;;;;;;8.32;5.07;;;9.60;99.90;;;;;;4954476;28;20026;-52
2023/12/14 10:59:37;;;;;;;7.53;5.25;;;9.50;99.90;;;;;;4943590;28;20059;-50
2023/12/14 11:02:10;;;;;;;5.63;4.65;;;9.50;99.90;;;;;;4948780;28;20066;-51
2023/12/14 11:04:59;;;;;;;6.13;5.13;;;9.40;99.90;;;;;;4964287;28;20039;-53
2023/12/14 11:07:50;;;;;;;7.90;4.90;;;9.40;99.90;;;;;;4964719;28;20085;-53
2023/12/14 11:10:22;;;;;;;6.07;4.63;;;9.50;99.90;;;;;;4970772;28;20027;-55
2023/12/14 11:13:13;;;;;;;6.72;4.88;;;9.60;99.90;;;;;;4970495;28;20045;-54
2023/12/14 11:15:45;;;;;;;7.80;5.82;;;9.60;99.90;;;;;;4966674;28;20043;-55
2023/12/14 11:18:10;;;;;;;10.98;5.07;;;9.60;99.90;;;;;;4934950;29;20028;-51
2023/12/14 11:20:45;;;;;;;8.30;4.18;;;9.60;99.90;;;;;;4951088;29;20054;-48
2023/12/14 11:23:31;;;;;;;4.95;3.80;;;9.60;99.90;;;;;;4934059;29;20053;-48
2023/12/14 11:26:04;;;;;;;5.32;4.53;;;9.50;99.90;;;;;;4933967;29;20049;-54
2023/12/14 11:28:42;;;;;;;9.95;5.03;;;9.50;99.90;;;;;;4955386;28;20401;-56
2023/12/14 11:31:12;;;;;;;9.32;6.13;;;9.50;99.90;;;;;;4970209;28;20023;-54
2023/12/14 11:33:37;;;;;;;7.75;5.22;;;9.60;99.90;;;;;;4952252;28;20027;-54
2023/12/14 11:36:03;;;;;;;7.85;5.55;;;9.50;99.90;;;;;;4940157;29;20041;-52
2023/12/14 11:38:30;;;;;;;7.18;5.47;;;9.60;99.90;;;;;;4950855;29;20035;-51
2023/12/14 11:40:55;;;;;;;7.68;5.78;;;9.50;99.90;;;;;;4950879;29;20106;-52
2023/12/14 11:43:21;;;;;;;8.30;6.75;;;9.50;99.90;;;;;;4961007;28;20039;-51
2023/12/14 11:45:47;;;;;;;8.57;6.03;;;9.40;99.90;;;;;;4970567;28;20110;-51
2023/12/14 11:48:13;;;;;;;10.57;7.47;;;9.30;99.90;;;;;;4952750;28;20164;-51
2023/12/14 11:50:41;;;;;;;8.90;6.45;;;9.30;99.90;;;;;;4952625;28;20073;-54
2023/12/14 11:53:07;;;;;;;8.88;7.07;;;9.30;99.90;;;;;;4964394;28;20050;-52
2023/12/14 11:55:36;;;;;;;10.75;7.25;;;9.30;99.90;;;;;;4958457;28;20494;-53
2023/12/14 11:58:02;;;;;;;8.63;6.38;;;9.30;99.90;;;;;;4953613;28;20144;-52
2023/12/14 12:00:30;;;;;;;12.23;7.78;;;9.20;99.90;;;;;;4947156;28;20486;-50
2023/12/14 12:03:10;;;;;;;9.20;5.78;;;9.20;99.90;;;;;;4965876;28;20401;-53
2023/12/14 12:05:45;;;;;;;6.55;5.55;;;9.10;99.90;;;;;;4959628;28;20023;-49
2023/12/14 12:08:12;;;;;;;9.63;6.43;;;9.00;99.90;;;;;;4957845;28;20127;-53
2023/12/14 12:10:39;;;;;;;8.63;5.43;;;9.10;99.90;;;;;;4950472;28;20265;-52
2023/12/14 12:13:14;;;;;;;7.88;6.35;;;9.10;99.90;;;;;;4957963;28;20040;-63
2023/12/14 12:15:40;;;;;;;7.07;4.90;;;9.10;99.90;;;;;;4962874;28;20518;-61
2023/12/14 12:18:10;;;;;;;9.30;5.85;;;9.10;99.90;;;;;;4969824;28;20502;-63
2023/12/14 12:20:36;;;;;;;5.85;5.25;;;9.20;99.90;;;;;;4969347;28;20031;-61
2023/12/14 12:23:03;;;;;;;6.93;5.15;;;9.20;99.90;;;;;;4952101;28;20039;-62
2023/12/14 12:25:29;;;;;;;9.35;6.00;;;9.20;99.90;;;;;;4953761;28;20031;-61
2023/12/14 12:27:55;;;;;;;6.63;5.90;;;9.30;99.90;;;;;;4950929;28;20034;-65
2023/12/14 12:30:21;;;;;;;20.02;14.35;;;9.30;99.90;;;;;;4933103;29;20069;-54
2023/12/14 12:32:47;;;;;;;6.20;5.28;;;9.30;99.90;;;;;;4950036;28;20107;-60
2023/12/14 12:35:13;;;;;;;6.40;5.30;;;9.20;99.90;;;;;;4965839;28;20118;-64
2023/12/14 12:37:39;;;;;;;7.47;6.32;;;9.30;99.90;;;;;;4961387;28;20033;-59
2023/12/14 12:40:05;;;;;;;5.90;5.22;;;9.30;99.90;;;;;;4967540;28;20563;-59
2023/12/14 12:42:31;;;;;;;6.40;5.10;;;9.30;99.90;;;;;;4958007;28;20050;-55
2023/12/14 12:44:56;;;;;;;7.15;5.68;;;9.40;99.90;;;;;;4952080;28;20066;-57
2023/12/14 12:47:22;;;;;;;8.35;6.22;;;9.40;99.90;;;;;;4940226;29;20242;-59